createdAt,value
2019-03-01T00:00:10.814Z,17.10
2019-03-01T00:02:41.484Z,17.10
2019-03-01T00:06:18.373Z,17.10
2019-03-01T00:09:30.926Z,16.90
2019-03-01T00:12:44.638Z,17.00
2019-03-01T00:15:42.358Z,17.00
2019-03-01T00:19:05.052Z,17.00
2019-03-01T00:22:08.498Z,17.00
2019-03-01T00:25:34.923Z,17.00
2019-03-01T00:28:35.702Z,16.90
2019-03-01T00:31:40.360Z,16.90
2019-03-01T00:34:55.506Z,16.90
2019-03-01T00:38:26.964Z,16.90
2019-03-01T00:41:54.195Z,16.90
2019-03-01T00:44:48.395Z,16.90
2019-03-01T00:47:19.215Z,16.90
2019-03-01T00:49:49.794Z,17.00
2019-03-01T00:52:20.383Z,17.00
2019-03-01T00:54:51.152Z,17.00
2019-03-01T00:57:21.773Z,17.10
2019-03-01T00:59:54.134Z,17.10
2019-03-01T01:02:24.889Z,17.10
2019-03-01T01:04:55.439Z,17.10
2019-03-01T01:07:26.087Z,17.10
2019-03-01T01:09:56.630Z,17.10
2019-03-01T01:12:27.235Z,17.10
2019-03-01T01:14:57.905Z,17.10
2019-03-01T01:17:28.530Z,17.10
2019-03-01T01:19:59.147Z,17.10
2019-03-01T01:22:29.758Z,17.10
2019-03-01T01:25:02.137Z,17.20
2019-03-01T01:27:32.775Z,17.20
2019-03-01T01:30:03.428Z,17.20
2019-03-01T01:32:34.027Z,17.20
2019-03-01T01:35:04.591Z,17.20
2019-03-01T01:37:36.659Z,17.20
2019-03-01T01:40:08.448Z,17.20
2019-03-01T01:42:41.972Z,17.20
2019-03-01T01:45:13.454Z,17.20
2019-03-01T01:47:44.077Z,17.20
2019-03-01T01:50:14.678Z,17.20
2019-03-01T01:52:45.264Z,17.20
2019-03-01T01:55:15.809Z,17.20
2019-03-01T01:57:46.410Z,17.20
2019-03-01T02:00:16.995Z,17.20
2019-03-01T02:02:50.117Z,17.30
2019-03-01T02:05:20.709Z,17.20
2019-03-01T02:07:52.496Z,17.20
2019-03-01T02:10:23.586Z,17.20
2019-03-01T02:12:54.276Z,17.20
2019-03-01T02:15:26.345Z,17.30
2019-03-01T02:17:58.133Z,17.30
2019-03-01T02:20:28.728Z,17.20
2019-03-01T02:22:59.405Z,17.30
2019-03-01T02:25:29.996Z,17.30
2019-03-01T02:28:00.634Z,17.30
2019-03-01T02:30:31.544Z,17.30
2019-03-01T02:33:03.594Z,17.30
2019-03-01T02:35:35.358Z,17.30
2019-03-01T02:38:05.940Z,17.30
2019-03-01T02:40:40.120Z,17.30
2019-03-01T02:43:12.183Z,17.30
2019-03-01T02:45:44.531Z,17.30
2019-03-01T02:48:16.260Z,17.30
2019-03-01T02:50:46.828Z,17.30
2019-03-01T02:53:19.269Z,17.40
2019-03-01T02:55:51.016Z,17.30
2019-03-01T02:58:21.648Z,17.40
2019-03-01T03:00:52.351Z,17.40
2019-03-01T03:03:23.052Z,17.40
2019-03-01T03:06:13.075Z,17.40
2019-03-01T03:08:43.704Z,17.30
2019-03-01T03:11:14.782Z,17.30
2019-03-01T03:13:45.411Z,17.30
2019-03-01T03:16:16.204Z,17.40
2019-03-01T03:18:46.782Z,17.40
2019-03-01T03:21:17.370Z,17.40
2019-03-01T03:23:47.945Z,17.40
2019-03-01T03:26:21.756Z,17.40
2019-03-01T03:28:52.393Z,17.40
2019-03-01T03:31:25.699Z,17.40
2019-03-01T03:33:56.273Z,17.40
2019-03-01T03:36:27.891Z,17.40
2019-03-01T03:38:58.492Z,17.40
2019-03-01T03:41:29.064Z,17.40
2019-03-01T03:43:59.649Z,17.40
2019-03-01T03:46:32.040Z,17.40
2019-03-01T03:49:02.720Z,17.40
2019-03-01T03:51:33.344Z,17.40
2019-03-01T03:54:04.151Z,17.30
2019-03-01T03:56:34.724Z,17.30
2019-03-01T03:59:05.381Z,17.30
2019-03-01T04:01:36.056Z,17.30
2019-03-01T04:04:06.969Z,17.30
2019-03-01T04:06:38.732Z,17.30
2019-03-01T04:09:11.125Z,17.30
2019-03-01T04:11:41.702Z,17.30
2019-03-01T04:14:12.504Z,17.30
2019-03-01T04:16:43.197Z,17.30
2019-03-01T04:19:13.855Z,17.30
2019-03-01T04:21:44.425Z,17.30
2019-03-01T04:24:16.509Z,17.30
2019-03-01T04:26:47.229Z,17.30
2019-03-01T04:29:17.916Z,17.30
2019-03-01T04:31:48.466Z,17.30
2019-03-01T04:34:20.833Z,17.30
2019-03-01T04:36:52.950Z,17.30
2019-03-01T04:39:25.421Z,17.30
2019-03-01T04:41:55.952Z,17.30
2019-03-01T04:44:27.662Z,17.30
2019-03-01T04:46:59.431Z,17.30
2019-03-01T04:49:31.478Z,17.30
2019-03-01T04:52:22.595Z,17.30
2019-03-01T04:54:53.206Z,17.20
2019-03-01T04:57:24.015Z,17.30
2019-03-01T04:59:54.663Z,17.30
2019-03-01T05:02:25.204Z,17.30
2019-03-01T05:04:55.944Z,17.30
2019-03-01T05:07:27.616Z,17.30
2019-03-01T05:09:58.201Z,17.30
2019-03-01T05:12:31.682Z,17.30
2019-03-01T05:15:03.525Z,17.30
2019-03-01T05:17:34.093Z,17.20
2019-03-01T05:20:04.901Z,17.20
2019-03-01T05:22:36.685Z,17.30
2019-03-01T05:25:07.764Z,17.30
2019-03-01T05:27:38.423Z,17.30
2019-03-01T05:30:10.857Z,17.30
2019-03-01T05:32:41.555Z,17.30
2019-03-01T05:35:13.343Z,17.30
2019-03-01T05:37:43.997Z,17.30
2019-03-01T05:40:16.190Z,17.30
2019-03-01T05:42:46.800Z,17.30
2019-03-01T05:45:20.896Z,17.30
2019-03-01T05:47:51.621Z,17.30
2019-03-01T05:50:22.313Z,17.40
2019-03-01T05:52:57.900Z,17.40
2019-03-01T05:55:28.759Z,17.30
2019-03-01T05:58:46.883Z,17.30
2019-03-01T06:01:36.177Z,17.10
2019-03-01T06:04:32.637Z,17.10
2019-03-01T06:07:37.080Z,17.20
2019-03-01T06:10:47.144Z,17.10
2019-03-01T06:13:56.093Z,17.10
2019-03-01T06:18:09.688Z,16.90
2019-03-01T06:20:54.891Z,16.80
2019-03-01T06:23:52.169Z,16.90
2019-03-01T06:27:10.135Z,17.00
2019-03-01T06:30:15.218Z,17.10
2019-03-01T06:33:23.409Z,17.00
2019-03-01T06:36:43.744Z,17.00
2019-03-01T06:40:28.159Z,17.00
2019-03-01T06:43:17.454Z,17.00
2019-03-01T06:47:03.299Z,17.10
2019-03-01T06:49:53.110Z,17.10
2019-03-01T06:52:25.151Z,17.00
2019-03-01T06:54:55.705Z,17.10
2019-03-01T06:57:26.305Z,17.10
2019-03-01T06:59:56.860Z,17.20
2019-03-01T07:02:34.848Z,17.20
2019-03-01T07:05:05.619Z,17.20
2019-03-01T07:07:38.836Z,17.30
2019-03-01T07:10:10.295Z,17.30
2019-03-01T07:12:40.926Z,17.30
2019-03-01T07:15:13.096Z,17.30
2019-03-01T07:17:45.499Z,17.30
2019-03-01T07:20:17.147Z,17.30
2019-03-01T07:22:47.865Z,17.30
2019-03-01T07:25:19.572Z,17.40
2019-03-01T07:27:51.481Z,17.30
2019-03-01T07:30:22.129Z,17.30
2019-03-01T07:32:54.161Z,17.30
2019-03-01T07:35:26.013Z,17.30
2019-03-01T07:37:56.631Z,17.30
2019-03-01T07:40:29.018Z,17.30
2019-03-01T07:42:59.760Z,17.30
2019-03-01T07:45:30.555Z,17.30
2019-03-01T07:48:01.149Z,17.30
2019-03-01T07:50:31.707Z,17.40
2019-03-01T07:53:03.739Z,17.40
2019-03-01T07:55:34.728Z,17.40
2019-03-01T07:58:05.321Z,17.40
2019-03-01T08:00:35.888Z,17.40
2019-03-01T08:03:06.740Z,17.40
2019-03-01T08:05:40.238Z,17.50
2019-03-01T08:08:14.233Z,17.40
2019-03-01T08:10:44.796Z,17.40
2019-03-01T08:13:17.565Z,17.40
2019-03-01T08:15:48.827Z,17.40
2019-03-01T08:18:19.420Z,17.40
2019-03-01T08:20:49.977Z,17.50
2019-03-01T08:23:20.549Z,17.50
2019-03-01T08:25:51.112Z,17.50
2019-03-01T08:28:22.855Z,17.60
2019-03-01T08:30:53.712Z,17.60
2019-03-01T08:33:24.292Z,17.50
2019-03-01T08:35:55.063Z,17.60
2019-03-01T08:38:28.806Z,17.60
2019-03-01T08:40:58.129Z,17.60
2019-03-01T08:43:28.742Z,17.60
2019-03-01T08:46:00.297Z,17.60
2019-03-01T08:48:33.633Z,17.60
2019-03-01T08:51:04.685Z,17.60
2019-03-01T08:53:37.072Z,17.60
2019-03-01T08:56:10.972Z,17.70
2019-03-01T08:58:41.344Z,17.70
2019-03-01T09:01:13.345Z,17.70
2019-03-01T09:03:50.116Z,17.70
2019-03-01T09:06:22.281Z,17.70
2019-03-01T09:08:52.919Z,17.70
2019-03-01T09:11:25.498Z,17.70
2019-03-01T09:13:56.162Z,17.70
2019-03-01T09:16:26.743Z,17.80
2019-03-01T09:18:57.341Z,17.80
2019-03-01T09:21:28.201Z,17.80
2019-03-01T09:24:00.261Z,17.80
2019-03-01T09:26:30.880Z,17.80
2019-03-01T09:29:01.545Z,17.80
2019-03-01T09:31:32.175Z,17.90
2019-03-01T09:34:02.754Z,17.90
2019-03-01T09:36:37.261Z,17.90
2019-03-01T09:39:10.627Z,17.90
2019-03-01T09:41:41.616Z,17.90
2019-03-01T09:44:13.413Z,18.00
2019-03-01T09:46:44.007Z,18.00
2019-03-01T09:49:14.706Z,18.00
2019-03-01T09:51:49.909Z,18.00
2019-03-01T09:54:19.582Z,18.00
2019-03-01T09:56:51.643Z,18.00
2019-03-01T09:59:22.468Z,18.00
2019-03-01T10:01:53.149Z,18.00
2019-03-01T10:04:26.207Z,18.10
2019-03-01T10:06:58.128Z,18.10
2019-03-01T10:09:28.714Z,18.10
2019-03-01T10:11:59.309Z,18.10
2019-03-01T10:14:29.910Z,18.10
2019-03-01T10:17:02.353Z,18.10
2019-03-01T10:19:32.962Z,18.10
2019-03-01T10:22:03.608Z,18.20
2019-03-01T10:24:36.015Z,18.20
2019-03-01T10:27:06.651Z,18.20
2019-03-01T10:29:40.212Z,18.20
2019-03-01T10:32:12.491Z,18.20
2019-03-01T10:34:43.154Z,18.20
2019-03-01T10:37:13.738Z,18.20
2019-03-01T10:39:52.794Z,18.20
2019-03-01T10:42:18.111Z,18.20
2019-03-01T10:44:48.727Z,18.20
2019-03-01T10:47:20.561Z,18.20
2019-03-01T10:49:51.246Z,18.20
2019-03-01T10:52:21.950Z,18.30
2019-03-01T10:54:52.530Z,18.30
2019-03-01T10:57:23.278Z,18.30
2019-03-01T10:59:56.164Z,18.30
2019-03-01T11:02:26.803Z,18.30
2019-03-01T11:04:57.572Z,18.30
2019-03-01T11:07:47.441Z,18.30
2019-03-01T11:10:21.626Z,18.30
2019-03-01T11:12:53.409Z,18.40
2019-03-01T11:15:24.020Z,18.40
2019-03-01T11:17:54.806Z,18.40
2019-03-01T11:20:25.378Z,18.40
2019-03-01T11:22:56.048Z,18.40
2019-03-01T11:25:26.776Z,18.40
2019-03-01T11:27:57.680Z,18.40
2019-03-01T11:30:30.262Z,18.40
2019-03-01T11:33:01.171Z,18.40
2019-03-01T11:35:33.327Z,18.40
2019-03-01T11:38:04.066Z,18.40
2019-03-01T11:40:35.005Z,18.40
2019-03-01T11:43:06.436Z,18.40
2019-03-01T11:45:37.446Z,18.40
2019-03-01T11:48:08.205Z,18.50
2019-03-01T11:50:38.790Z,18.50
2019-03-01T11:53:09.403Z,18.50
2019-03-01T11:55:39.969Z,18.50
2019-03-01T11:58:10.651Z,18.50
2019-03-01T12:00:51.775Z,18.50
2019-03-01T12:03:15.484Z,18.50
2019-03-01T12:05:48.203Z,18.60
2019-03-01T12:08:18.809Z,18.60
2019-03-01T12:10:50.510Z,18.50
2019-03-01T12:13:21.110Z,18.50
2019-03-01T12:15:51.831Z,18.50
2019-03-01T12:18:22.445Z,18.60
2019-03-01T12:20:53.200Z,18.60
2019-03-01T12:23:23.769Z,18.60
2019-03-01T12:25:54.339Z,18.60
2019-03-01T12:28:26.012Z,18.60
2019-03-01T12:30:56.635Z,18.60
2019-03-01T12:33:29.159Z,18.60
2019-03-01T12:35:59.757Z,18.60
2019-03-01T12:38:31.823Z,18.70
2019-03-01T12:41:02.452Z,18.70
2019-03-01T12:43:32.986Z,18.70
2019-03-01T12:46:03.594Z,18.70
2019-03-01T12:48:34.238Z,18.70
2019-03-01T12:51:05.867Z,18.70
2019-03-01T12:53:36.445Z,18.70
2019-03-01T12:56:07.103Z,18.70
2019-03-01T12:58:37.702Z,18.70
2019-03-01T13:01:08.426Z,18.60
2019-03-01T13:03:40.535Z,18.40
2019-03-01T13:06:11.322Z,18.30
2019-03-01T13:08:41.905Z,18.20
2019-03-01T13:11:16.300Z,18.10
2019-03-01T13:13:45.304Z,18.10
2019-03-01T13:16:16.001Z,18.10
2019-03-01T13:18:47.745Z,18.20
2019-03-01T13:21:20.518Z,18.20
2019-03-01T13:23:51.118Z,18.20
2019-03-01T13:26:21.847Z,18.20
2019-03-01T13:28:52.464Z,18.10
2019-03-01T13:31:23.310Z,18.20
2019-03-01T13:33:54.010Z,18.30
2019-03-01T13:36:24.634Z,18.30
2019-03-01T13:38:55.307Z,18.30
2019-03-01T13:41:27.680Z,18.40
2019-03-01T13:44:00.303Z,18.30
2019-03-01T13:46:33.270Z,18.30
2019-03-01T13:49:03.138Z,18.30
2019-03-01T13:51:34.672Z,18.40
2019-03-01T13:54:05.785Z,18.30
2019-03-01T13:56:37.678Z,18.40
2019-03-01T13:59:10.108Z,18.40
2019-03-01T14:01:40.703Z,18.30
2019-03-01T14:04:11.418Z,18.40
2019-03-01T14:06:42.044Z,18.40
2019-03-01T14:09:16.569Z,18.40
2019-03-01T14:11:47.263Z,18.40
2019-03-01T14:14:17.871Z,18.30
2019-03-01T14:16:49.618Z,18.40
2019-03-01T14:19:20.251Z,18.40
2019-03-01T14:21:51.000Z,18.40
2019-03-01T14:24:21.708Z,18.40
2019-03-01T14:26:53.907Z,18.40
2019-03-01T14:29:25.418Z,18.40
2019-03-01T14:31:55.990Z,18.40
2019-03-01T14:34:26.700Z,18.30
2019-03-01T14:36:57.421Z,18.30
2019-03-01T14:39:29.062Z,18.30
2019-03-01T14:41:59.629Z,18.20
2019-03-01T14:44:30.661Z,18.20
2019-03-01T14:47:02.688Z,18.20
2019-03-01T14:49:33.341Z,18.10
2019-03-01T14:52:03.898Z,18.10
2019-03-01T14:54:36.052Z,18.10
2019-03-01T14:57:17.540Z,18.10
2019-03-01T15:00:12.931Z,18.00
2019-03-01T15:03:49.894Z,17.90
2019-03-01T15:06:20.781Z,17.80
2019-03-01T15:08:51.459Z,17.80
2019-03-01T15:11:23.699Z,17.80
2019-03-01T15:13:55.949Z,17.80
2019-03-01T15:16:26.609Z,17.80
2019-03-01T15:18:57.189Z,17.70
2019-03-01T15:21:27.854Z,17.70
2019-03-01T15:24:00.349Z,17.70
2019-03-01T15:26:32.063Z,17.70
2019-03-01T15:29:02.702Z,17.70
2019-03-01T15:31:33.317Z,17.70
2019-03-01T15:34:03.989Z,17.60
2019-03-01T15:36:35.737Z,17.70
2019-03-01T15:39:08.537Z,17.70
2019-03-01T15:41:42.105Z,17.70
2019-03-01T15:44:11.677Z,17.60
2019-03-01T15:46:42.425Z,17.60
2019-03-01T15:49:15.236Z,17.60
2019-03-01T15:51:46.510Z,17.60
2019-03-01T15:54:17.115Z,17.60
2019-03-01T15:56:47.870Z,17.60
2019-03-01T15:59:18.455Z,17.60
2019-03-01T16:01:49.065Z,17.70
2019-03-01T16:04:19.734Z,17.70
2019-03-01T16:06:55.206Z,17.60
2019-03-01T16:09:25.124Z,17.50
2019-03-01T16:11:57.518Z,17.40
2019-03-01T16:14:28.261Z,17.40
2019-03-01T16:16:58.818Z,17.40
2019-03-01T16:19:29.475Z,17.40
2019-03-01T16:22:00.112Z,17.40
2019-03-01T16:24:30.750Z,17.40
2019-03-01T16:27:01.441Z,17.30
2019-03-01T16:29:32.230Z,17.30
2019-03-01T16:32:04.788Z,17.30
2019-03-01T16:34:37.616Z,17.30
2019-03-01T16:37:11.628Z,17.30
2019-03-01T16:39:42.373Z,17.20
2019-03-01T16:42:14.570Z,17.20
2019-03-01T16:44:46.305Z,17.10
2019-03-01T16:47:18.669Z,17.10
2019-03-01T16:49:49.329Z,17.00
2019-03-01T16:52:19.932Z,17.00
2019-03-01T16:54:51.642Z,17.00
2019-03-01T16:57:22.866Z,16.90
2019-03-01T16:59:53.480Z,16.90
2019-03-01T17:02:24.053Z,16.90
2019-03-01T17:04:54.779Z,16.80
2019-03-01T17:07:28.687Z,16.80
2019-03-01T17:10:01.164Z,16.80
2019-03-01T17:12:31.934Z,16.70
2019-03-01T17:15:02.573Z,16.70
2019-03-01T17:17:36.777Z,16.60
2019-03-01T17:20:05.856Z,16.60
2019-03-01T17:22:36.549Z,16.50
2019-03-01T17:25:07.611Z,16.50
2019-03-01T17:27:40.016Z,16.50
2019-03-01T17:30:15.087Z,16.40
2019-03-01T17:32:45.629Z,16.30
2019-03-01T17:35:16.361Z,16.20
2019-03-01T17:37:47.050Z,16.10
2019-03-01T17:40:17.895Z,16.00
2019-03-01T17:42:48.623Z,16.00
2019-03-01T17:45:20.958Z,15.90
2019-03-01T17:47:51.702Z,16.00
2019-03-01T17:50:22.490Z,16.00
2019-03-01T17:52:53.093Z,16.00
2019-03-01T17:55:24.459Z,15.90
2019-03-01T17:57:55.257Z,15.90
2019-03-01T18:00:31.496Z,15.90
2019-03-01T18:03:02.097Z,15.80
2019-03-01T18:05:32.777Z,15.80
2019-03-01T18:08:04.976Z,15.70
2019-03-01T18:10:35.923Z,15.70
2019-03-01T18:13:06.770Z,15.60
2019-03-01T18:15:37.468Z,15.50
2019-03-01T18:18:08.857Z,15.50
2019-03-01T18:20:40.491Z,15.40
2019-03-01T18:23:11.102Z,15.40
2019-03-01T18:25:41.766Z,15.50
2019-03-01T18:28:12.425Z,15.40
2019-03-01T18:30:43.009Z,15.30
2019-03-01T18:33:16.926Z,15.40
2019-03-01T18:35:48.939Z,15.40
2019-03-01T18:38:19.664Z,15.40
2019-03-01T18:40:51.781Z,15.40
2019-03-01T18:43:22.717Z,15.40
2019-03-01T18:45:53.384Z,15.40
2019-03-01T18:48:23.976Z,15.50
2019-03-01T18:50:54.801Z,15.50
2019-03-01T18:53:28.842Z,15.50
2019-03-01T18:55:57.818Z,15.60
2019-03-01T18:58:28.442Z,15.60
2019-03-01T19:00:59.149Z,15.60
2019-03-01T19:03:29.807Z,15.60
2019-03-01T19:06:00.402Z,15.60
2019-03-01T19:08:31.071Z,15.50
2019-03-01T19:11:03.751Z,15.50
2019-03-01T19:13:34.525Z,15.40
2019-03-01T19:16:05.705Z,15.50
2019-03-01T19:18:36.522Z,15.50
2019-03-01T19:21:08.247Z,15.50
2019-03-01T19:23:38.857Z,15.50
2019-03-01T19:26:09.436Z,15.50
2019-03-01T19:28:40.144Z,15.50
2019-03-01T19:31:10.837Z,15.50
2019-03-01T19:33:41.808Z,15.50
2019-03-01T19:36:12.536Z,15.50
2019-03-01T19:38:43.168Z,15.60
2019-03-01T19:41:13.752Z,15.60
2019-03-01T19:43:45.671Z,15.70
2019-03-01T19:46:16.793Z,15.70
2019-03-01T19:48:47.435Z,15.70
2019-03-01T19:51:18.105Z,15.70
2019-03-01T19:53:48.728Z,15.70
2019-03-01T19:56:25.003Z,15.60
2019-03-01T19:58:51.659Z,15.60
2019-03-01T20:01:22.239Z,15.60
2019-03-01T20:03:52.828Z,15.60
2019-03-01T20:06:23.425Z,15.60
2019-03-01T20:08:54.070Z,15.60
2019-03-01T20:11:26.739Z,15.50
2019-03-01T20:13:57.348Z,15.50
2019-03-01T20:16:28.041Z,15.50
2019-03-01T20:18:58.770Z,15.50
2019-03-01T20:21:29.470Z,15.40
2019-03-01T20:24:01.756Z,15.40
2019-03-01T20:26:33.913Z,15.40
2019-03-01T20:29:05.562Z,15.40
2019-03-01T20:31:36.767Z,15.40
2019-03-01T20:34:09.606Z,15.40
2019-03-01T20:36:41.785Z,15.40
2019-03-01T20:39:15.547Z,15.40
2019-03-01T20:41:46.716Z,15.30
2019-03-01T20:44:18.689Z,15.30
2019-03-01T20:46:51.515Z,15.20
2019-03-01T20:49:23.268Z,15.20
2019-03-01T20:51:55.045Z,15.20
2019-03-01T20:54:29.228Z,15.20
2019-03-01T20:56:59.939Z,15.10
2019-03-01T20:59:30.509Z,15.00
2019-03-01T21:02:02.578Z,15.00
2019-03-01T21:04:33.251Z,14.90
2019-03-01T21:07:04.018Z,15.00
2019-03-01T21:09:37.677Z,15.00
2019-03-01T21:12:07.323Z,15.00
2019-03-01T21:14:37.907Z,15.00
2019-03-01T21:17:08.662Z,15.10
2019-03-01T21:19:40.852Z,15.10
2019-03-01T21:22:13.116Z,15.00
2019-03-01T21:24:43.680Z,15.00
2019-03-01T21:27:14.294Z,15.00
2019-03-01T21:29:47.572Z,15.00
2019-03-01T21:32:18.286Z,14.90
2019-03-01T21:34:49.974Z,14.90
2019-03-01T21:37:21.761Z,14.90
2019-03-01T21:39:55.597Z,14.80
2019-03-01T21:42:24.651Z,14.80
2019-03-01T21:44:55.281Z,14.80
2019-03-01T21:47:25.841Z,14.80
2019-03-01T21:49:56.566Z,14.70
2019-03-01T21:52:29.583Z,14.70
2019-03-01T21:54:59.561Z,14.80
2019-03-01T21:57:31.170Z,14.80
2019-03-01T22:00:01.959Z,14.80
2019-03-01T22:02:32.657Z,14.80
2019-03-01T22:05:03.362Z,14.90
2019-03-01T22:07:37.144Z,14.80
2019-03-01T22:10:08.423Z,14.90
2019-03-01T22:12:39.554Z,14.90
2019-03-01T22:15:21.481Z,14.90
2019-03-01T22:17:52.123Z,14.90
2019-03-01T22:20:23.531Z,14.90
2019-03-01T22:22:55.949Z,15.00
2019-03-01T22:25:26.851Z,14.90
2019-03-01T22:28:00.652Z,14.80
2019-03-01T22:30:30.946Z,14.80
2019-03-01T22:33:01.642Z,14.90
2019-03-01T22:35:32.216Z,14.90
2019-03-01T22:38:04.734Z,14.90
2019-03-01T22:40:36.054Z,14.90
2019-03-01T22:43:08.596Z,14.90
2019-03-01T22:45:48.830Z,15.00
2019-03-01T22:48:19.754Z,15.00
2019-03-01T22:50:50.325Z,15.00
2019-03-01T22:53:20.877Z,15.10
2019-03-01T22:55:53.134Z,15.10
2019-03-01T22:58:23.791Z,15.10
2019-03-01T23:01:17.318Z,15.10
2019-03-01T23:03:55.887Z,15.10
2019-03-01T23:06:26.645Z,15.10
2019-03-01T23:08:57.955Z,15.10
2019-03-01T23:11:33.698Z,15.10
2019-03-01T23:14:04.636Z,15.00
2019-03-01T23:16:35.272Z,15.10
2019-03-01T23:19:06.053Z,15.10
2019-03-01T23:21:36.914Z,15.10
2019-03-01T23:24:07.686Z,15.10
2019-03-01T23:26:38.237Z,15.10
2019-03-01T23:29:08.905Z,15.10
2019-03-01T23:31:39.749Z,15.20
2019-03-01T23:34:10.518Z,15.20
2019-03-01T23:36:41.078Z,15.20
2019-03-01T23:39:12.030Z,15.20
2019-03-01T23:41:43.427Z,15.20
2019-03-01T23:44:16.919Z,15.20
2019-03-01T23:46:47.487Z,15.20
2019-03-01T23:49:20.662Z,15.20
2019-03-01T23:51:52.085Z,15.10
2019-03-01T23:54:22.670Z,15.10
2019-03-01T23:57:42.006Z,15.10
